Photometre #849[NE_1.6_Dp] Portglenone_MO AOT

File : 20220828_849.hum

28/08/2022,06:28:01,TEMP=13.2,BA=5.64,STAT.A,ExtBa=12.20
28/08/2022,06:32:28,TEMP=13.4,BA=5.64,STAT.A,ExtBa=12.20
28/08/2022,06:37:41,TEMP=13.6,BA=5.64,STAT.A,ExtBa=12.20
28/08/2022,06:43:47,TEMP=13.7,BA=5.64,STAT.A,ExtBa=12.20
28/08/2022,06:51:10,TEMP=13.9,BA=5.64,STAT.A,ExtBa=12.20
28/08/2022,07:00:13,TEMP=14.1,BA=5.64,STAT.A,ExtBa=12.20
28/08/2022,07:11:36,TEMP=14.5,BA=5.64,STAT.B,ExtBa=12.20
28/08/2022,07:24:34,TEMP=16.0,BA=5.56,STAT.A,ExtBa=12.10
28/08/2022,07:26:34,TEMP=16.2,BA=5.56,STAT.A,ExtBa=12.10
28/08/2022,07:29:57,TEMP=16.0,BA=5.56,STAT.A,ExtBa=12.10
28/08/2022,07:37:40,TEMP=16.0,BA=5.56,STAT.A,ExtBa=12.10
28/08/2022,07:46:33,TEMP=16.0,BA=5.64,STAT.C,ExtBa=12.20
28/08/2022,08:23:35,TEMP=19.1,BA=5.56,STAT.A,ExtBa=12.10
28/08/2022,08:25:36,TEMP=19.3,BA=5.56,STAT.A,ExtBa=12.10
28/08/2022,08:27:36,TEMP=19.4,BA=5.56,STAT.A,ExtBa=12.10
28/08/2022,08:41:30,TEMP=20.2,BA=5.64,STAT.A,ExtBa=12.10
28/08/2022,09:04:17,TEMP=22.5,BA=5.64,STAT.B,ExtBa=12.10
28/08/2022,09:17:47,TEMP=23.8,BA=5.52,STAT.D,ExtBa=12.10
28/08/2022,09:27:52,TEMP=23.7,BA=5.60,STAT.F,ExtBa=12.10
28/08/2022,10:07:47,TEMP=25.6,BA=5.48,STAT.D,ExtBa=12.10
28/08/2022,10:09:46,TEMP=25.6,BA=5.48,STAT.D,ExtBa=12.10
28/08/2022,10:12:51,TEMP=25.4,BA=5.48,STAT.D,ExtBa=12.10
28/08/2022,10:27:52,TEMP=24.4,BA=5.56,STAT.F,ExtBa=12.10
28/08/2022,11:14:10,TEMP=25.4,BA=5.44,STAT.D,ExtBa=12.10
28/08/2022,11:16:09,TEMP=25.6,BA=5.44,STAT.D,ExtBa=12.10
28/08/2022,11:18:08,TEMP=25.7,BA=5.44,STAT.D,ExtBa=12.10
28/08/2022,11:27:53,TEMP=24.9,BA=5.52,STAT.F,ExtBa=12.10
28/08/2022,11:42:51,TEMP=25.0,BA=5.52,STAT.D,ExtBa=12.10
28/08/2022,11:57:51,TEMP=25.3,BA=5.52,STAT.D,ExtBa=12.10
28/08/2022,12:12:51,TEMP=24.9,BA=5.52,STAT.D,ExtBa=12.10
28/08/2022,12:27:53,TEMP=24.5,BA=5.52,STAT.F,ExtBa=12.10
28/08/2022,12:42:51,TEMP=25.0,BA=5.44,STAT.D,ExtBa=12.10
28/08/2022,12:57:51,TEMP=23.9,BA=5.52,STAT.D,ExtBa=12.10
28/08/2022,13:12:51,TEMP=23.9,BA=5.52,STAT.D,ExtBa=12.10
28/08/2022,13:27:53,TEMP=23.9,BA=5.52,STAT.F,ExtBa=12.10
28/08/2022,14:06:12,TEMP=25.4,BA=5.44,STAT.D,ExtBa=12.10
28/08/2022,14:08:12,TEMP=25.4,BA=5.44,STAT.D,ExtBa=12.10
28/08/2022,14:12:51,TEMP=25.0,BA=5.52,STAT.D,ExtBa=12.10
28/08/2022,14:27:52,TEMP=24.4,BA=5.52,STAT.F,ExtBa=12.10
28/08/2022,14:42:51,TEMP=23.5,BA=5.56,STAT.D,ExtBa=12.10
28/08/2022,14:57:51,TEMP=22.9,BA=5.56,STAT.D,ExtBa=12.10
28/08/2022,15:12:51,TEMP=24.3,BA=5.56,STAT.D,ExtBa=12.10
28/08/2022,15:27:52,TEMP=26.2,BA=5.56,STAT.F,ExtBa=12.10
28/08/2022,16:09:25,TEMP=26.3,BA=5.44,STAT.D,ExtBa=12.00
28/08/2022,16:11:26,TEMP=26.2,BA=5.44,STAT.B,ExtBa=12.10
28/08/2022,16:25:38,TEMP=25.3,BA=5.44,STAT.A,ExtBa=12.00
28/08/2022,16:32:09,TEMP=24.6,BA=5.56,STAT.A,ExtBa=12.10
28/08/2022,16:46:43,TEMP=24.3,BA=5.56,STAT.A,ExtBa=12.10
28/08/2022,16:58:50,TEMP=23.4,BA=5.56,STAT.A,ExtBa=12.10
28/08/2022,17:09:09,TEMP=23.0,BA=5.48,STAT.C,ExtBa=12.10
28/08/2022,17:45:08,TEMP=22.6,BA=5.44,STAT.b=2.0
28/08/2022,17:45:36,TEMP=22.6,BA=5.44,STAT.A,ExtBa=12.00
28/08/2022,17:47:41,TEMP=22.5,BA=5.44,STAT.A,ExtBa=12.00
28/08/2022,17:49:41,TEMP=22.5,BA=5.44,STAT.A,ExtBa=12.00
28/08/2022,17:58:36,TEMP=21.6,BA=5.44,STAT.A,ExtBa=12.10
28/08/2022,18:00:38,TEMP=22.0,BA=5.44,STAT.B,ExtBa=12.00
28/08/2022,18:13:06,TEMP=21.4,BA=5.44,STAT.A,ExtBa=12.00
28/08/2022,18:15:07,TEMP=21.4,BA=5.44,STAT.A,ExtBa=12.00
28/08/2022,18:17:03,TEMP=21.3,BA=5.44,STAT.A,ExtBa=12.00
28/08/2022,18:19:03,TEMP=21.2,BA=5.44,STAT.A,ExtBa=12.00
28/08/2022,18:23:14,TEMP=20.6,BA=5.44,STAT.A,ExtBa=12.10
28/08/2022,18:27:41,TEMP=20.3,BA=5.44,STAT.A,ExtBa=12.10